Time;durP1;ratioP1;P1;durP2;ratioP2;P2;SDS_P1;SDS_P2;PMS_P1;PMS_P2;Temp;Humidity;BMP_temperature;BMP_pressure;BME280_temperature;BME280_humidity;BME280_pressure;Samples;Min_cycle;Max_cycle;Signal;HPM_P1;HPM_P2
2022/02/13 00:01:10;;;;;;;;;;;-1.10;99.90;;;;;;4176681;28;19925;-48
2022/02/13 00:03:12;;;;;;;;;;;-1.10;99.90;;;;;;4164344;28;19971;-48
2022/02/13 00:05:14;;;;;;;;;;;-1.00;99.90;;;;;;4169347;28;20411;-47
2022/02/13 00:07:16;;;;;;;;;;;-1.00;99.90;;;;;;4173038;28;19929;-49
2022/02/13 00:09:18;;;;;;;;;;;-1.00;99.90;;;;;;4165876;28;20335;-48
2022/02/13 00:11:20;;;;;;;;;;;-1.00;99.90;;;;;;4164340;28;19925;-50
2022/02/13 00:13:21;;;;;;;;;;;-1.00;99.90;;;;;;4161881;28;19971;-51
2022/02/13 00:15:24;;;;;;;;;;;-1.00;99.90;;;;;;4166484;28;19959;-50
2022/02/13 00:17:26;;;;;;;;;;;-1.00;99.90;;;;;;4161102;28;19979;-51
2022/02/13 00:19:40;;;;;;;;;;;-1.10;99.90;;;;;;4176298;28;19929;-48
2022/02/13 00:21:43;;;;;;;;;;;-1.10;99.90;;;;;;4171242;28;19957;-48
2022/02/13 00:23:45;;;;;;;;;;;-1.20;99.90;;;;;;4175727;28;19975;-48
2022/02/13 00:25:48;;;;;;;;;;;-1.30;99.90;;;;;;4161116;28;20557;-49
2022/02/13 00:27:50;;;;;;;;;;;-1.30;99.90;;;;;;4166898;28;19987;-48
2022/02/13 00:29:52;;;;;;;;;;;-1.30;99.90;;;;;;4164179;28;20031;-48
2022/02/13 00:31:54;;;;;;;;;;;-1.30;99.90;;;;;;4175362;28;19999;-49
2022/02/13 00:33:56;;;;;;;;;;;-1.30;99.90;;;;;;4175177;28;20360;-51
2022/02/13 00:35:58;;;;;;;;;;;-1.30;99.90;;;;;;4174852;28;20028;-48
2022/02/13 00:38:00;;;;;;;;;;;-1.30;99.90;;;;;;4172739;28;20037;-47
2022/02/13 00:40:02;;;;;;;;;;;-1.30;99.90;;;;;;4172709;28;19928;-48
2022/02/13 00:42:04;;;;;;;;;;;-1.30;99.90;;;;;;4162550;28;20023;-50
2022/02/13 00:44:06;;;;;;;;;;;-1.30;99.90;;;;;;4175191;28;20270;-50
2022/02/13 00:46:08;;;;;;;;;;;-1.30;99.90;;;;;;4176039;28;19936;-50
2022/02/13 00:48:10;;;;;;;;;;;-1.20;99.90;;;;;;4175231;28;20416;-47
2022/02/13 00:50:12;;;;;;;;;;;-1.30;99.90;;;;;;4175622;28;19935;-48
2022/02/13 00:52:14;;;;;;;;;;;-1.30;99.90;;;;;;4174166;28;19956;-49
2022/02/13 00:54:16;;;;;;;;;;;-1.20;99.90;;;;;;4175103;28;19968;-47
2022/02/13 00:56:18;;;;;;;;;;;-1.30;99.90;;;;;;4163644;28;20031;-49
2022/02/13 00:58:20;;;;;;;;;;;-1.30;99.90;;;;;;4167302;28;19940;-50
2022/02/13 01:00:22;;;;;;;;;;;-1.40;99.90;;;;;;4176825;28;19935;-50
2022/02/13 01:02:23;;;;;;;;;;;-1.50;99.90;;;;;;4176464;28;20302;-50
2022/02/13 01:04:25;;;;;;;;;;;-1.50;99.90;;;;;;4173017;28;19936;-51
2022/02/13 01:06:27;;;;;;;;;;;-1.60;99.90;;;;;;4160534;28;19931;-49
2022/02/13 01:08:29;;;;;;;;;;;-1.60;99.90;;;;;;4166635;28;20364;-51
2022/02/13 01:10:31;;;;;;;;;;;-1.60;99.90;;;;;;4166432;28;20413;-46
2022/02/13 01:12:33;;;;;;;;;;;-1.60;99.90;;;;;;4176250;28;20478;-49
2022/02/13 01:14:35;;;;;;;;;;;-1.60;99.90;;;;;;4168642;28;19929;-50
2022/02/13 01:16:37;;;;;;;;;;;-1.60;99.90;;;;;;4166051;28;19925;-47
2022/02/13 01:18:39;;;;;;;;;;;-1.70;99.90;;;;;;4175423;28;19967;-49
2022/02/13 01:20:40;;;;;;;;;;;-1.70;99.90;;;;;;4174835;28;19925;-48
2022/02/13 01:22:42;;;;;;;;;;;-1.80;99.90;;;;;;4173962;28;19956;-49
2022/02/13 01:24:44;;;;;;;;;;;-1.80;99.90;;;;;;4170236;28;20016;-49
2022/02/13 01:26:46;;;;;;;;;;;-1.80;99.90;;;;;;4176697;28;20242;-50
2022/02/13 01:28:48;;;;;;;;;;;-1.80;99.90;;;;;;4177948;28;19928;-49
2022/02/13 01:30:50;;;;;;;;;;;-1.80;99.90;;;;;;4179315;28;20471;-47
2022/02/13 01:32:52;;;;;;;;;;;-2.00;99.90;;;;;;4176614;28;20031;-48
2022/02/13 01:34:54;;;;;;;;;;;-2.00;99.90;;;;;;4166260;28;20011;-51
2022/02/13 01:36:56;;;;;;;;;;;-2.00;99.90;;;;;;4176887;28;19980;-49
2022/02/13 01:38:58;;;;;;;;;;;-2.10;99.90;;;;;;4176367;28;19964;-49
2022/02/13 01:41:00;;;;;;;;;;;-2.00;99.90;;;;;;4173273;28;19925;-50
2022/02/13 01:43:01;;;;;;;;;;;-2.10;99.90;;;;;;4173839;28;20378;-49
2022/02/13 01:45:04;;;;;;;;;;;-2.00;99.90;;;;;;4173570;28;20424;-47
2022/02/13 01:47:06;;;;;;;;;;;-2.00;99.90;;;;;;4177799;28;19968;-51
2022/02/13 01:49:09;;;;;;;;;;;-2.00;99.90;;;;;;4175927;28;19928;-50
2022/02/13 01:51:11;;;;;;;;;;;-2.00;99.90;;;;;;4171271;28;19928;-51
2022/02/13 01:53:24;;;;;;;;;;;-2.00;99.90;;;;;;4177739;28;19956;-47
2022/02/13 01:55:26;;;;;;;;;;;-1.90;99.90;;;;;;4174481;28;20023;-47
2022/02/13 01:57:28;;;;;;;;;;;-1.90;99.90;;;;;;4172480;28;20551;-51
2022/02/13 01:59:30;;;;;;;;;;;-1.90;99.90;;;;;;4169479;28;19983;-50
2022/02/13 02:01:32;;;;;;;;;;;-1.90;99.90;;;;;;4178720;28;19990;-48
2022/02/13 02:03:34;;;;;;;;;;;-1.90;99.90;;;;;;4171004;28;19925;-48
2022/02/13 02:05:36;;;;;;;;;;;-1.90;99.90;;;;;;4172718;28;20368;-49
2022/02/13 02:07:38;;;;;;;;;;;-1.90;99.90;;;;;;4178352;28;19936;-47
2022/02/13 02:09:47;;;;;;;;;;;-1.90;99.90;;;;;;4177139;28;19925;-47
2022/02/13 02:11:49;;;;;;;;;;;-1.90;99.90;;;;;;4176516;28;20054;-48
2022/02/13 02:13:51;;;;;;;;;;;-2.00;99.90;;;;;;4176691;28;19964;-50
2022/02/13 02:15:53;;;;;;;;;;;-2.00;99.90;;;;;;4174191;28;19928;-50
2022/02/13 02:17:54;;;;;;;;;;;-2.10;99.90;;;;;;4177686;28;20262;-51
2022/02/13 02:19:56;;;;;;;;;;;-2.10;99.90;;;;;;4177000;28;19928;-50
2022/02/13 02:21:58;;;;;;;;;;;-2.20;99.90;;;;;;4174548;28;20019;-51
2022/02/13 02:24:00;;;;;;;;;;;-2.20;99.90;;;;;;4178470;28;19928;-49
2022/02/13 02:26:02;;;;;;;;;;;-2.30;99.90;;;;;;4175371;28;19925;-49
2022/02/13 02:28:04;;;;;;;;;;;-2.30;99.90;;;;;;4174930;28;19971;-48
2022/02/13 02:30:06;;;;;;;;;;;-2.40;99.90;;;;;;4179217;28;19936;-49
2022/02/13 02:32:11;;;;;;;;;;;-2.40;99.90;;;;;;4176799;28;19925;-48
2022/02/13 02:34:12;;;;;;;;;;;-2.40;99.90;;;;;;4158842;28;19925;-47
2022/02/13 02:36:18;;;;;;;;;;;-2.30;99.90;;;;;;4162784;28;19925;-50
2022/02/13 02:38:20;;;;;;;;;;;-2.30;99.90;;;;;;4173949;28;19964;-49
2022/02/13 02:40:23;;;;;;;;;;;-2.30;99.90;;;;;;4174880;28;20371;-51
2022/02/13 02:42:25;;;;;;;;;;;-2.30;99.90;;;;;;4178784;28;19925;-47
2022/02/13 02:44:27;;;;;;;;;;;-2.30;99.90;;;;;;4174474;28;19978;-50
2022/02/13 02:46:29;;;;;;;;;;;-2.30;99.90;;;;;;4175045;28;19986;-48
2022/02/13 02:48:31;;;;;;;;;;;-2.30;99.90;;;;;;4177693;28;20448;-50
2022/02/13 02:50:33;;;;;;;;;;;-2.30;99.90;;;;;;4175630;28;19978;-49
2022/02/13 02:52:35;;;;;;;;;;;-2.20;99.90;;;;;;4175914;28;19929;-49
2022/02/13 02:54:37;;;;;;;;;;;-2.10;99.90;;;;;;4161587;28;19933;-49
2022/02/13 02:56:39;;;;;;;;;;;-2.20;99.90;;;;;;4169428;28;19964;-48
2022/02/13 02:58:41;;;;;;;;;;;-2.10;99.90;;;;;;4165352;28;19965;-49
2022/02/13 03:00:43;;;;;;;;;;;-2.20;99.90;;;;;;4166010;28;19972;-47
2022/02/13 03:02:45;;;;;;;;;;;-2.10;99.90;;;;;;4169568;28;19964;-50
2022/02/13 03:04:47;;;;;;;;;;;-2.10;99.90;;;;;;4162335;28;19991;-50
2022/02/13 03:06:49;;;;;;;;;;;-2.10;99.90;;;;;;4169330;28;19951;-48
2022/02/13 03:08:51;;;;;;;;;;;-2.10;99.90;;;;;;4175439;28;19984;-49
2022/02/13 03:10:53;;;;;;;;;;;-2.20;99.90;;;;;;4163784;28;19968;-51
2022/02/13 03:12:57;;;;;;;;;;;-2.20;99.90;;;;;;4169621;28;20401;-47
2022/02/13 03:14:59;;;;;;;;;;;-2.30;99.90;;;;;;4167834;28;20007;-50
2022/02/13 03:17:03;;;;;;;;;;;-2.30;99.90;;;;;;4174462;28;20019;-48
2022/02/13 03:19:05;;;;;;;;;;;-2.40;99.90;;;;;;4163313;28;19925;-50
2022/02/13 03:21:07;;;;;;;;;;;-2.40;99.90;;;;;;4169851;28;19928;-47
2022/02/13 03:23:09;;;;;;;;;;;-2.40;99.90;;;;;;4166198;28;20582;-48
2022/02/13 03:25:11;;;;;;;;;;;-2.60;99.90;;;;;;4173179;28;19925;-50
2022/02/13 03:27:13;;;;;;;;;;;-2.70;99.90;;;;;;4168838;28;19999;-51
2022/02/13 03:29:15;;;;;;;;;;;-2.70;99.90;;;;;;4175692;28;20007;-48
2022/02/13 03:31:17;;;;;;;;;;;-2.60;99.90;;;;;;4177402;28;20020;-49
2022/02/13 03:33:19;;;;;;;;;;;-2.60;99.90;;;;;;4175436;28;20032;-50
2022/02/13 03:35:21;;;;;;;;;;;-2.50;99.90;;;;;;4175063;28;19928;-47
2022/02/13 03:37:23;;;;;;;;;;;-2.40;99.90;;;;;;4175786;28;20023;-51
2022/02/13 03:39:28;;;;;;;;;;;-2.40;99.90;;;;;;4167786;28;19954;-48
2022/02/13 03:41:30;;;;;;;;;;;-2.40;99.90;;;;;;4169188;28;20359;-51
2022/02/13 03:43:32;;;;;;;;;;;-2.30;99.90;;;;;;4175465;28;20247;-51
2022/02/13 03:45:34;;;;;;;;;;;-2.30;99.90;;;;;;4169291;28;19925;-46
2022/02/13 03:47:36;;;;;;;;;;;-2.30;99.90;;;;;;4173589;28;20019;-47
2022/02/13 03:49:38;;;;;;;;;;;-2.30;99.90;;;;;;4174242;28;19929;-46
2022/02/13 03:51:40;;;;;;;;;;;-2.30;99.90;;;;;;4170800;28;19929;-47
2022/02/13 03:53:44;;;;;;;;;;;-2.20;99.90;;;;;;4177487;28;19929;-46
2022/02/13 03:55:45;;;;;;;;;;;-2.20;99.90;;;;;;4172366;28;19931;-50
2022/02/13 03:57:47;;;;;;;;;;;-2.20;99.90;;;;;;4173406;28;19928;-47
2022/02/13 03:59:49;;;;;;;;;;;-2.20;99.90;;;;;;4161859;28;19960;-47
2022/02/13 04:01:51;;;;;;;;;;;-2.10;99.90;;;;;;4173542;28;19964;-49
2022/02/13 04:03:53;;;;;;;;;;;-2.10;99.90;;;;;;4174673;28;19975;-47
2022/02/13 04:05:55;;;;;;;;;;;-2.20;99.90;;;;;;4177349;28;20015;-51
2022/02/13 04:07:57;;;;;;;;;;;-2.20;99.90;;;;;;4173976;28;19932;-47
2022/02/13 04:09:59;;;;;;;;;;;-2.20;99.90;;;;;;4174537;28;20475;-50
2022/02/13 04:12:01;;;;;;;;;;;-2.20;99.90;;;;;;4177175;28;21010;-48
2022/02/13 04:14:03;;;;;;;;;;;-2.30;99.90;;;;;;4172597;28;19964;-46
2022/02/13 04:16:05;;;;;;;;;;;-2.30;99.90;;;;;;4174591;28;20428;-50
2022/02/13 04:18:14;;;;;;;;;;;-2.30;99.90;;;;;;4173455;28;19980;-49
2022/02/13 04:20:16;;;;;;;;;;;-2.30;99.90;;;;;;4169890;28;19929;-47
2022/02/13 04:22:18;;;;;;;;;;;-2.30;99.90;;;;;;4174093;28;19929;-51
2022/02/13 04:24:20;;;;;;;;;;;-2.40;99.90;;;;;;4176051;28;20353;-48
2022/02/13 04:26:22;;;;;;;;;;;-2.40;99.90;;;;;;4172351;28;20023;-48
2022/02/13 04:28:23;;;;;;;;;;;-2.40;99.90;;;;;;4175726;28;19928;-51
2022/02/13 04:30:26;;;;;;;;;;;-2.50;99.90;;;;;;4175650;28;19967;-49
2022/02/13 04:32:28;;;;;;;;;;;-2.50;99.90;;;;;;4173553;28;19944;-49
2022/02/13 04:34:30;;;;;;;;;;;-2.50;99.90;;;;;;4162309;28;20027;-51
2022/02/13 04:36:31;;;;;;;;;;;-2.50;99.90;;;;;;4174701;28;20373;-49
2022/02/13 04:38:34;;;;;;;;;;;-2.50;99.90;;;;;;4174620;28;19933;-51
2022/02/13 04:40:36;;;;;;;;;;;-2.60;99.90;;;;;;4176131;28;20023;-51
2022/02/13 04:42:38;;;;;;;;;;;-2.50;99.90;;;;;;4166092;28;19929;-47
2022/02/13 04:44:40;;;;;;;;;;;-2.70;99.90;;;;;;4166236;28;19925;-50
2022/02/13 04:46:43;;;;;;;;;;;-2.90;99.90;;;;;;4161955;28;19925;-48
2022/02/13 04:48:44;;;;;;;;;;;-3.10;99.90;;;;;;4176161;28;19963;-49
2022/02/13 04:50:46;;;;;;;;;;;-3.00;99.90;;;;;;4178445;28;19961;-47
2022/02/13 04:52:52;;;;;;;;;;;-3.10;99.90;;;;;;4165006;28;20028;-50
2022/02/13 04:54:54;;;;;;;;;;;-3.10;99.90;;;;;;4169927;28;20015;-49
2022/02/13 04:56:56;;;;;;;;;;;-3.10;99.90;;;;;;4170831;28;19963;-50
2022/02/13 04:58:58;;;;;;;;;;;-3.10;99.90;;;;;;4166057;28;20024;-50
2022/02/13 05:01:00;;;;;;;;;;;-3.00;99.90;;;;;;4177192;28;19979;-48
2022/02/13 05:03:04;;;;;;;;;;;-2.90;99.90;;;;;;4178306;28;20011;-51
2022/02/13 05:05:06;;;;;;;;;;;-2.90;99.90;;;;;;4170592;28;19933;-50
2022/02/13 05:07:08;;;;;;;;;;;-3.00;99.90;;;;;;4173703;28;19933;-51
2022/02/13 05:09:10;;;;;;;;;;;-2.90;99.90;;;;;;4168524;28;19935;-50
2022/02/13 05:11:12;;;;;;;;;;;-2.80;99.90;;;;;;4170441;28;19978;-50
2022/02/13 05:13:14;;;;;;;;;;;-2.80;99.90;;;;;;4178044;28;19968;-47
2022/02/13 05:15:17;;;;;;;;;;;-2.90;99.90;;;;;;4168405;28;20393;-49
2022/02/13 05:17:21;;;;;;;;;;;-2.90;99.90;;;;;;4172680;28;19979;-48
2022/02/13 05:19:23;;;;;;;;;;;-3.00;99.90;;;;;;4176528;28;19929;-49
2022/02/13 05:21:25;;;;;;;;;;;-3.10;99.90;;;;;;4166920;28;19925;-51
2022/02/13 05:23:26;;;;;;;;;;;-3.20;99.90;;;;;;4173240;28;19967;-49
2022/02/13 05:25:28;;;;;;;;;;;-3.30;99.90;;;;;;4169361;28;19933;-49
2022/02/13 05:27:30;;;;;;;;;;;-3.40;99.90;;;;;;4168711;28;19925;-49
2022/02/13 05:29:33;;;;;;;;;;;-3.40;99.90;;;;;;4165061;28;20008;-50
2022/02/13 05:31:35;;;;;;;;;;;-3.30;99.90;;;;;;4173678;28;20301;-49
2022/02/13 05:33:41;;;;;;;;;;;-3.30;99.90;;;;;;4171267;28;20992;-48
2022/02/13 05:35:43;;;;;;;;;;;-3.20;99.90;;;;;;4178273;28;19955;-48
2022/02/13 05:37:47;;;;;;;;;;;-3.10;99.90;;;;;;4174343;28;19925;-49
2022/02/13 05:39:49;;;;;;;;;;;-2.90;99.90;;;;;;4172429;28;20008;-48
2022/02/13 05:41:51;;;;;;;;;;;-3.00;99.90;;;;;;4166806;28;19936;-48
2022/02/13 05:43:53;;;;;;;;;;;-3.00;99.90;;;;;;4173544;28;20024;-51
2022/02/13 05:45:55;;;;;;;;;;;-3.00;99.90;;;;;;4177641;28;20365;-48
2022/02/13 05:47:57;;;;;;;;;;;-3.10;99.90;;;;;;4178883;28;19982;-51
2022/02/13 05:49:59;;;;;;;;;;;-3.20;99.90;;;;;;4174436;28;19972;-49
2022/02/13 05:52:01;;;;;;;;;;;-3.10;99.90;;;;;;4177886;28;19995;-48
2022/02/13 05:54:03;;;;;;;;;;;-3.20;99.90;;;;;;4177720;28;19924;-47
2022/02/13 05:56:07;;;;;;;;;;;-3.20;99.90;;;;;;4171212;28;20368;-49
2022/02/13 05:58:09;;;;;;;;;;;-3.10;99.90;;;;;;4176851;28;19925;-48
2022/02/13 06:00:11;;;;;;;;;;;-3.10;99.90;;;;;;4176565;28;19932;-47
2022/02/13 06:02:13;;;;;;;;;;;-3.10;99.90;;;;;;4176150;28;20635;-47
2022/02/13 06:04:15;;;;;;;;;;;-3.10;99.90;;;;;;4176837;28;20365;-47
2022/02/13 06:06:17;;;;;;;;;;;-3.10;99.90;;;;;;4178335;28;19928;-49
2022/02/13 06:08:22;;;;;;;;;;;-3.00;99.90;;;;;;4176925;28;19959;-48
2022/02/13 06:10:24;;;;;;;;;;;-3.00;99.90;;;;;;4179199;28;20050;-50
2022/02/13 06:12:26;;;;;;;;;;;-3.00;99.90;;;;;;4176794;28;19967;-50
2022/02/13 06:14:28;;;;;;;;;;;-3.00;99.90;;;;;;4173659;28;19975;-50
2022/02/13 06:16:30;;;;;;;;;;;-3.00;99.90;;;;;;4170619;28;19967;-50
2022/02/13 06:18:34;;;;;;;;;;;-2.90;99.90;;;;;;4174720;28;19929;-46
2022/02/13 06:20:36;;;;;;;;;;;-2.90;99.90;;;;;;4175774;28;19933;-47
2022/02/13 06:22:39;;;;;;;;;;;-2.90;99.90;;;;;;4178177;28;19931;-49
2022/02/13 06:24:41;;;;;;;;;;;-2.90;99.90;;;;;;4175910;28;19982;-47
2022/02/13 06:26:43;;;;;;;;;;;-2.80;99.90;;;;;;4175320;28;19951;-48
2022/02/13 06:28:45;;;;;;;;;;;-2.70;99.90;;;;;;4161917;28;19979;-50
2022/02/13 06:30:47;;;;;;;;;;;-2.70;99.90;;;;;;4175673;28;20554;-46
2022/02/13 06:32:53;;;;;;;;;;;-2.70;99.90;;;;;;4175282;28;19931;-47
2022/02/13 06:34:55;;;;;;;;;;;-2.60;99.90;;;;;;4162205;28;20011;-50
2022/02/13 06:36:57;;;;;;;;;;;-2.60;99.90;;;;;;4185176;28;19967;-47
2022/02/13 06:38:59;;;;;;;;;;;-2.60;99.90;;;;;;4173792;28;19979;-48
2022/02/13 06:41:01;;;;;;;;;;;-2.60;99.90;;;;;;4173917;28;19947;-49
2022/02/13 06:43:03;;;;;;;;;;;-2.60;99.90;;;;;;4169456;28;19929;-48
2022/02/13 06:45:05;;;;;;;;;;;-2.50;99.90;;;;;;4166464;28;19975;-48
2022/02/13 06:47:10;;;;;;;;;;;-2.40;99.90;;;;;;4166279;28;19933;-49
2022/02/13 06:49:12;;;;;;;;;;;-2.40;99.90;;;;;;4171964;28;19971;-48
2022/02/13 06:51:14;;;;;;;;;;;-2.40;99.90;;;;;;4164980;28;19935;-47
2022/02/13 06:53:16;;;;;;;;;;;-2.30;99.90;;;;;;4166469;28;20424;-48
2022/02/13 06:55:18;;;;;;;;;;;-2.40;99.90;;;;;;4172375;28;19968;-48
2022/02/13 06:57:20;;;;;;;;;;;-2.40;99.90;;;;;;4164892;28;20469;-48
2022/02/13 06:59:26;;;;;;;;;;;-2.40;99.90;;;;;;4171683;28;19929;-49
2022/02/13 07:01:28;;;;;;;;;;;-2.30;99.90;;;;;;4177566;28;19963;-47
2022/02/13 07:03:30;;;;;;;;;;;-2.30;99.90;;;;;;4165933;28;20317;-48
2022/02/13 07:05:32;;;;;;;;;;;-2.40;99.90;;;;;;4163947;28;19960;-47
2022/02/13 07:07:34;;;;;;;;;;;-2.30;99.90;;;;;;4171974;28;19972;-49
2022/02/13 07:09:36;;;;;;;;;;;-2.20;99.90;;;;;;4175023;28;20088;-48
2022/02/13 07:11:39;;;;;;;;;;;-2.20;99.90;;;;;;4177222;28;19932;-47
2022/02/13 07:13:41;;;;;;;;;;;-2.20;99.90;;;;;;4174783;28;19979;-46
2022/02/13 07:15:43;;;;;;;;;;;-2.20;99.90;;;;;;4168915;28;19925;-47
2022/02/13 07:17:45;;;;;;;;;;;-2.10;99.90;;;;;;4174011;28;20340;-47
2022/02/13 07:19:47;;;;;;;;;;;-2.00;99.90;;;;;;4171283;28;19968;-47
2022/02/13 07:21:49;;;;;;;;;;;-1.90;99.90;;;;;;4176919;28;20373;-49
2022/02/13 07:23:51;;;;;;;;;;;-1.80;99.90;;;;;;4177427;28;19967;-46
2022/02/13 07:25:53;;;;;;;;;;;-1.70;99.90;;;;;;4170468;28;20361;-47
2022/02/13 07:27:55;;;;;;;;;;;-1.70;99.90;;;;;;4177649;28;19924;-47
2022/02/13 07:30:00;;;;;;;;;;;-1.70;99.90;;;;;;4175778;28;19955;-49
2022/02/13 07:32:03;;;;;;;;;;;-1.80;99.90;;;;;;4169684;28;20713;-48
2022/02/13 07:34:05;;;;;;;;;;;-1.80;99.90;;;;;;4161053;28;20312;-48
2022/02/13 07:36:07;;;;;;;;;;;-1.70;99.90;;;;;;4175259;28;19935;-47
2022/02/13 07:38:10;;;;;;;;;;;-1.60;99.90;;;;;;4172210;28;19932;-47
2022/02/13 07:40:12;;;;;;;;;;;-1.50;99.90;;;;;;4162973;28;19928;-46
2022/02/13 07:42:17;;;;;;;;;;;-1.40;99.90;;;;;;4174299;28;20349;-45
2022/02/13 07:44:18;;;;;;;;;;;-1.30;99.90;;;;;;4172319;28;19929;-49
2022/02/13 07:46:20;;;;;;;;;;;-1.20;99.90;;;;;;4168430;28;19937;-46
2022/02/13 07:48:23;;;;;;;;;;;-1.20;99.90;;;;;;4167303;28;20457;-46
2022/02/13 07:50:27;;;;;;;;;;;-1.10;99.90;;;;;;4165188;28;20493;-47
2022/02/13 07:52:28;;;;;;;;;;;-1.10;99.90;;;;;;4177344;28;20015;-47
2022/02/13 07:54:30;;;;;;;;;;;-1.10;99.90;;;;;;4174057;28;19960;-47
2022/02/13 07:56:32;;;;;;;;;;;-1.10;99.90;;;;;;4174553;28;20725;-46
2022/02/13 07:58:35;;;;;;;;;;;-1.10;99.90;;;;;;4172139;28;20301;-48
2022/02/13 08:00:37;;;;;;;;;;;-1.10;99.90;;;;;;4173555;28;19929;-47
2022/02/13 08:02:40;;;;;;;;;;;-1.10;99.90;;;;;;4175322;28;19929;-50
2022/02/13 08:04:42;;;;;;;;;;;-1.10;99.90;;;;;;4177337;28;20551;-49
2022/02/13 08:06:44;;;;;;;;;;;-1.00;99.90;;;;;;4172374;28;20344;-49
2022/02/13 08:08:48;;;;;;;;;;;-1.00;99.90;;;;;;4168529;28;19929;-47
2022/02/13 08:10:50;;;;;;;;;;;-0.90;99.90;;;;;;4190811;28;20034;-50
2022/02/13 08:12:52;;;;;;;;;;;-0.80;99.90;;;;;;4170359;28;20450;-49
2022/02/13 08:14:54;;;;;;;;;;;-0.70;99.90;;;;;;4164098;28;19971;-46
2022/02/13 08:16:56;;;;;;;;;;;-0.60;99.90;;;;;;4165186;28;20027;-47
2022/02/13 08:18:58;;;;;;;;;;;-0.60;99.90;;;;;;4168586;28;19931;-49
2022/02/13 08:21:03;;;;;;;;;;;-0.40;99.90;;;;;;4175744;28;19935;-50
2022/02/13 08:23:05;;;;;;;;;;;-0.30;99.90;;;;;;4173989;28;19929;-50
2022/02/13 08:25:08;;;;;;;;;;;-0.20;99.90;;;;;;4167722;28;19963;-47
2022/02/13 08:27:09;;;;;;;;;;;-0.10;99.90;;;;;;4177076;28;19932;-49
2022/02/13 08:29:11;;;;;;;;;;;-0.10;99.90;;;;;;4173967;28;19987;-48
2022/02/13 08:31:14;;;;;;;;;;;0.00;99.90;;;;;;4173813;28;19928;-49
2022/02/13 08:33:16;;;;;;;;;;;0.20;99.90;;;;;;4177276;28;19938;-47
2022/02/13 08:35:18;;;;;;;;;;;0.30;99.90;;;;;;4173467;28;20038;-48
2022/02/13 08:37:20;;;;;;;;;;;0.50;99.90;;;;;;4174018;28;20472;-47
2022/02/13 08:39:22;;;;;;;;;;;0.50;99.90;;;;;;4160613;28;20433;-47
2022/02/13 08:41:24;;;;;;;;;;;0.70;99.90;;;;;;4166240;28;20463;-47
2022/02/13 08:43:25;;;;;;;;;;;0.70;99.90;;;;;;4163414;28;19956;-49
2022/02/13 08:45:28;;;;;;;;;;;0.80;99.90;;;;;;4165872;28;19939;-49
2022/02/13 08:47:30;;;;;;;;;;;1.00;99.90;;;;;;4168759;28;20269;-46
2022/02/13 08:49:32;;;;;;;;;;;1.00;99.90;;;;;;4165016;28;19933;-48
2022/02/13 08:51:34;;;;;;;;;;;1.10;99.90;;;;;;4161370;28;20274;-50
2022/02/13 08:53:36;;;;;;;;;;;1.20;99.90;;;;;;4170241;28;19988;-48
2022/02/13 08:55:38;;;;;;;;;;;1.30;99.90;;;;;;4169584;28;20019;-49
2022/02/13 08:57:41;;;;;;;;;;;1.40;99.90;;;;;;4176037;28;19967;-50
2022/02/13 08:59:43;;;;;;;;;;;1.60;99.90;;;;;;4169918;28;20031;-50
2022/02/13 09:01:45;;;;;;;;;;;1.70;99.90;;;;;;4161552;28;20381;-51
2022/02/13 09:03:47;;;;;;;;;;;1.70;99.90;;;;;;4168912;28;20016;-49
2022/02/13 09:05:51;;;;;;;;;;;1.80;99.90;;;;;;4168752;28;19968;-50
2022/02/13 09:07:53;;;;;;;;;;;1.90;99.90;;;;;;4167626;28;20350;-50
2022/02/13 09:09:54;;;;;;;;;;;2.00;99.90;;;;;;4167757;28;19935;-50
2022/02/13 09:11:56;;;;;;;;;;;2.10;99.90;;;;;;4170414;28;19925;-48
2022/02/13 09:14:00;;;;;;;;;;;2.20;99.90;;;;;;4165714;28;20036;-50
2022/02/13 09:16:02;;;;;;;;;;;2.30;99.90;;;;;;4172172;28;19975;-50
2022/02/13 09:18:09;;;;;;;;;;;2.30;99.90;;;;;;4168037;28;19928;-49
2022/02/13 09:20:11;;;;;;;;;;;2.30;99.90;;;;;;4166971;28;20381;-50
2022/02/13 09:22:13;;;;;;;;;;;2.50;99.90;;;;;;4174247;28;19931;-49
2022/02/13 09:24:15;;;;;;;;;;;2.60;99.90;;;;;;4168736;28;20444;-47
2022/02/13 09:26:17;;;;;;;;;;;2.80;99.90;;;;;;4164791;28;20031;-49
2022/02/13 09:28:19;;;;;;;;;;;2.90;99.90;;;;;;4165781;28;20020;-48
2022/02/13 09:30:21;;;;;;;;;;;3.10;99.90;;;;;;4167358;28;20376;-51
2022/02/13 09:32:23;;;;;;;;;;;3.30;99.90;;;;;;4170825;28;20039;-50
2022/02/13 09:34:28;;;;;;;;;;;3.40;99.90;;;;;;4173562;28;20311;-50
2022/02/13 09:36:30;;;;;;;;;;;3.60;99.90;;;;;;4175011;28;20376;-48
2022/02/13 09:38:32;;;;;;;;;;;3.70;99.90;;;;;;4163751;28;19968;-50
2022/02/13 09:40:34;;;;;;;;;;;3.80;99.90;;;;;;4177286;28;20023;-50
2022/02/13 09:42:37;;;;;;;;;;;3.90;99.90;;;;;;4171205;28;19928;-48
2022/02/13 09:44:39;;;;;;;;;;;4.00;99.90;;;;;;4172667;28;19960;-51
2022/02/13 09:46:41;;;;;;;;;;;4.00;99.90;;;;;;4171911;28;19959;-50
2022/02/13 09:48:44;;;;;;;;;;;4.10;99.90;;;;;;4169309;28;19956;-49
2022/02/13 09:50:46;;;;;;;;;;;4.30;99.90;;;;;;4165657;28;20473;-50
2022/02/13 09:52:54;;;;;;;;;;;4.50;99.90;;;;;;4170536;28;20027;-50
2022/02/13 09:54:56;;;;;;;;;;;4.60;99.90;;;;;;4170234;28;19929;-49
2022/02/13 09:57:59;;;;;;;;;;;4.80;99.90;;;;;;4167165;28;20447;-49
2022/02/13 09:59:20;;;;;;;;;;;5.10;99.90;;;;;;4176170;28;19925;-51
2022/02/13 10:01:38;;;;;;;;;;;5.20;99.90;;;;;;4173754;28;20043;-48
2022/02/13 10:03:41;;;;;;;;;;;5.40;99.90;;;;;;4162921;28;20488;-49
2022/02/13 10:05:42;;;;;;;;;;;5.50;99.90;;;;;;4175857;28;20242;-50
2022/02/13 10:07:44;;;;;;;;;;;5.70;99.90;;;;;;4176849;28;19964;-47
2022/02/13 10:09:46;;;;;;;;;;;5.80;99.90;;;;;;4162706;28;20368;-49
2022/02/13 10:11:48;;;;;;;;;;;6.10;99.90;;;;;;4170640;28;20699;-51
2022/02/13 10:13:53;;;;;;;;;;;6.30;99.90;;;;;;4167980;28;20016;-48
2022/02/13 10:15:56;;;;;;;;;;;6.50;99.90;;;;;;4168653;28;20303;-48
2022/02/13 10:17:58;;;;;;;;;;;6.50;99.90;;;;;;4175406;28;20024;-51
2022/02/13 10:20:01;;;;;;;;;;;6.60;99.90;;;;;;4174568;28;20453;-50
2022/02/13 10:22:03;;;;;;;;;;;6.90;99.90;;;;;;4177961;28;20008;-51
2022/02/13 10:24:11;;;;;;;;;;;7.40;99.90;;;;;;4170916;28;19952;-51
2022/02/13 10:26:18;;;;;;;;;;;7.60;99.90;;;;;;4166444;28;20434;-49
2022/02/13 10:28:20;;;;;;;;;;;7.70;99.90;;;;;;4172499;28;20361;-48
2022/02/13 10:30:38;;;;;;;;;;;7.60;99.40;;;;;;4156051;28;19925;-50
2022/02/13 10:32:42;;;;;;;;;;;7.60;99.30;;;;;;4167006;28;19979;-50
2022/02/13 10:34:58;;;;;;;;;;;7.60;98.90;;;;;;4173042;28;19986;-49
2022/02/13 10:37:00;;;;;;;;;;;7.70;99.00;;;;;;4170749;28;20019;-50
2022/02/13 10:39:14;;;;;;;;;;;7.70;98.50;;;;;;4176002;28;20036;-48
2022/02/13 10:41:17;;;;;;;;;;;7.90;98.90;;;;;;4171426;28;20261;-49
2022/02/13 10:43:19;;;;;;;;;;;8.20;99.10;;;;;;4165631;28;20012;-47
2022/02/13 10:45:23;;;;;;;;;;;8.60;98.20;;;;;;4164556;28;19929;-50
2022/02/13 10:47:28;;;;;;;;;;;8.80;98.30;;;;;;4166898;28;19932;-50
2022/02/13 10:49:32;;;;;;;;;;;9.00;98.30;;;;;;4172664;28;21387;-49
2022/02/13 10:51:34;;;;;;;;;;;9.20;98.20;;;;;;4168459;28;19968;-49
2022/02/13 10:53:36;;;;;;;;;;;9.40;97.00;;;;;;4176356;28;20015;-50
2022/02/13 10:55:39;;;;;;;;;;;9.40;97.10;;;;;;4174919;28;19931;-51
2022/02/13 10:57:41;;;;;;;;;;;9.60;97.70;;;;;;4173746;28;19933;-49
2022/02/13 10:59:43;;;;;;;;;;;9.80;96.20;;;;;;4162829;28;19957;-50
2022/02/13 11:01:46;;;;;;;;;;;9.70;95.90;;;;;;4169723;28;20290;-51
2022/02/13 11:03:50;;;;;;;;;;;10.00;96.90;;;;;;4173271;28;19987;-51
2022/02/13 11:05:53;;;;;;;;;;;10.20;96.30;;;;;;4162626;28;19936;-51
2022/02/13 11:08:01;;;;;;;;;;;10.50;95.80;;;;;;4166982;28;19975;-51
2022/02/13 11:10:04;;;;;;;;;;;10.60;95.20;;;;;;4166327;28;20027;-50
2022/02/13 11:12:06;;;;;;;;;;;10.80;94.70;;;;;;4166312;28;19933;-50
2022/02/13 11:14:22;;;;;;;;;;;10.80;94.60;;;;;;4171110;28;19933;-49
2022/02/13 11:16:37;;;;;;;;;;;10.80;94.00;;;;;;4176320;28;19939;-49
2022/02/13 11:18:39;;;;;;;;;;;10.30;94.00;;;;;;4169557;28;20427;-51
2022/02/13 11:20:41;;;;;;;;;;;10.40;94.00;;;;;;4172464;28;20320;-50
2022/02/13 11:22:45;;;;;;;;;;;10.30;94.20;;;;;;4170963;28;19925;-48
2022/02/13 11:24:53;;;;;;;;;;;10.40;94.50;;;;;;4176200;28;19987;-50
2022/02/13 11:27:00;;;;;;;;;;;10.30;94.40;;;;;;4167880;28;19929;-50
2022/02/13 11:29:03;;;;;;;;;;;10.20;95.80;;;;;;4173224;28;20008;-48
2022/02/13 11:31:05;;;;;;;;;;;10.20;96.80;;;;;;4165428;28;20031;-50
2022/02/13 11:33:11;;;;;;;;;;;10.70;98.20;;;;;;4167059;28;19936;-50
2022/02/13 11:35:19;;;;;;;;;;;11.40;97.40;;;;;;4163959;28;20012;-49
2022/02/13 11:37:24;;;;;;;;;;;11.80;96.00;;;;;;4175610;28;20392;-48
2022/02/13 11:39:37;;;;;;;;;;;11.50;96.70;;;;;;4171497;28;20052;-48
2022/02/13 11:41:45;;;;;;;;;;;11.30;95.80;;;;;;4166178;28;20609;-47
2022/02/13 11:43:50;;;;;;;;;;;11.10;95.70;;;;;;4166659;28;19968;-49
2022/02/13 11:45:52;;;;;;;;;;;11.00;98.00;;;;;;4168387;28;20359;-48
2022/02/13 11:47:54;;;;;;;;;;;11.40;96.90;;;;;;4162796;28;19936;-47
2022/02/13 11:50:21;;;;;;;;;;;11.80;96.20;;;;;;4164882;28;19951;-50
2022/02/13 11:52:26;;;;;;;;;;;11.70;94.50;;;;;;4173776;28;19939;-46
2022/02/13 11:54:37;;;;;;;;;;;11.70;96.40;;;;;;4175168;28;20285;-50
2022/02/13 11:57:01;;;;;;;;;;;12.00;95.20;;;;;;4160406;28;20023;-49